Time;durP1;ratioP1;P1;durP2;ratioP2;P2;SDS_P1;SDS_P2;PMS_P1;PMS_P2;Temp;Humidity;BMP_temperature;BMP_pressure;BME280_temperature;BME280_humidity;BME280_pressure;Samples;Min_cycle;Max_cycle;Signal;HPM_P1;HPM_P2
2024/02/09 00:02:41;;;;;;;77.78;4.55;;;4.20;99.90;;;;;;20680299;28;20166;-44
2024/02/09 00:12:43;;;;;;;689.42;25.00;;;4.20;99.90;;;;;;20672245;28;20146;-49
2024/02/09 00:22:45;;;;;;;732.55;22.10;;;4.20;99.90;;;;;;20675089;28;20084;-46
2024/02/09 00:32:47;;;;;;;255.07;12.07;;;4.20;99.90;;;;;;20678193;28;20766;-44
2024/02/09 00:42:51;;;;;;;1467.88;53.90;;;4.30;99.90;;;;;;20676377;28;20540;-42
2024/02/09 00:52:54;;;;;;;1682.45;60.53;;;4.50;99.90;;;;;;20676282;28;20085;-47
2024/02/09 01:03:02;;;;;;;1304.35;51.67;;;4.50;99.90;;;;;;20678476;28;20119;-46
2024/02/09 02:46:15;;;;;;;1313.87;85.97;;;4.90;99.90;;;;;;20670729;28;20158;-44
2024/02/09 03:06:37;;;;;;;1999.90;149.98;;;4.90;99.90;;;;;;20669736;28;20502;-43
2024/02/09 03:16:39;;;;;;;1999.90;138.57;;;4.80;99.90;;;;;;20664494;28;20789;-43
2024/02/09 03:26:41;;;;;;;1999.90;127.90;;;4.80;99.90;;;;;;20669098;28;21004;-46
2024/02/09 03:36:43;;;;;;;1545.18;92.47;;;4.80;99.90;;;;;;20665462;28;20064;-42
2024/02/09 03:46:46;;;;;;;656.30;55.83;;;4.80;99.90;;;;;;20667904;28;20171;-45
2024/02/09 03:56:51;;;;;;;168.00;29.08;;;4.70;99.90;;;;;;20678404;28;21136;-43
2024/02/09 04:06:53;;;;;;;231.30;30.50;;;4.60;99.90;;;;;;20679114;28;21293;-47
2024/02/09 04:16:58;;;;;;;1477.18;92.25;;;4.70;99.90;;;;;;20682487;28;20040;-41
2024/02/09 04:27:03;;;;;;;711.85;55.10;;;4.70;99.90;;;;;;20673573;28;20169;-43
2024/02/09 04:37:04;;;;;;;1015.47;76.63;;;4.70;99.90;;;;;;20679623;28;20138;-43
2024/02/09 04:47:06;;;;;;;1659.13;102.75;;;4.70;99.90;;;;;;20677463;28;20110;-44
2024/02/09 04:57:10;;;;;;;1110.45;73.82;;;4.70;99.90;;;;;;20678636;28;20041;-47
2024/02/09 05:07:14;;;;;;;1052.13;79.93;;;4.70;99.90;;;;;;20671306;28;20068;-43
2024/02/09 05:17:15;;;;;;;1999.90;123.00;;;4.70;99.90;;;;;;20674997;28;20447;-46
2024/02/09 05:27:20;;;;;;;1999.90;130.90;;;4.60;99.90;;;;;;20673446;28;20564;-45
2024/02/09 05:37:23;;;;;;;1409.75;83.22;;;4.60;99.90;;;;;;20674349;28;20823;-43
2024/02/09 05:47:30;;;;;;;795.55;58.05;;;4.60;99.90;;;;;;20667949;28;20096;-43
2024/02/09 05:57:32;;;;;;;1999.90;139.35;;;4.50;99.90;;;;;;20673008;28;20220;-47
2024/02/09 06:07:34;;;;;;;1036.70;67.50;;;4.50;99.90;;;;;;20671320;28;21342;-46
2024/02/09 06:17:36;;;;;;;1566.68;108.75;;;4.50;99.90;;;;;;20670060;28;20103;-44
2024/02/09 06:27:45;;;;;;;306.77;30.17;;;4.50;99.90;;;;;;20654777;28;20041;-47
2024/02/09 06:37:47;;;;;;;674.38;48.00;;;4.60;99.90;;;;;;20666404;28;20221;-48
2024/02/09 06:47:49;;;;;;;1955.07;130.52;;;4.50;99.90;;;;;;20664558;28;20166;-48
2024/02/09 06:57:50;;;;;;;419.58;35.42;;;4.50;99.90;;;;;;20491297;28;20081;-42
2024/02/09 07:07:53;;;;;;;1499.95;95.32;;;4.50;99.90;;;;;;20495543;28;20135;-43
2024/02/09 07:17:56;;;;;;;1999.90;154.93;;;4.60;99.90;;;;;;20490434;28;20181;-45
2024/02/09 07:27:58;;;;;;;1513.55;77.97;;;4.60;99.90;;;;;;20639396;28;20085;-44
2024/02/09 07:38:02;;;;;;;1645.43;75.32;;;4.60;99.90;;;;;;20680364;28;20126;-49
2024/02/09 07:48:05;;;;;;;577.75;32.97;;;4.60;99.90;;;;;;20681135;28;20106;-43
2024/02/09 07:58:07;;;;;;;1280.32;60.10;;;4.60;99.90;;;;;;20679681;28;20126;-44
2024/02/09 08:08:10;;;;;;;308.25;21.45;;;4.70;99.90;;;;;;20678254;28;20068;-45
2024/02/09 08:18:12;;;;;;;249.40;20.77;;;4.70;99.90;;;;;;20681323;28;20053;-45
2024/02/09 08:28:16;;;;;;;43.45;9.25;;;4.80;99.90;;;;;;20679696;28;20072;-44
2024/02/09 08:38:22;;;;;;;747.40;33.55;;;4.90;99.90;;;;;;20676210;28;21676;-44
2024/02/09 08:48:23;;;;;;;989.05;47.28;;;5.00;99.90;;;;;;20677020;28;20065;-46
2024/02/09 08:58:25;;;;;;;568.60;23.42;;;5.10;99.90;;;;;;20672855;28;20136;-48
2024/02/09 09:08:27;;;;;;;863.92;37.60;;;5.10;99.90;;;;;;20676091;28;20041;-48
2024/02/09 09:18:29;;;;;;;740.53;30.27;;;5.10;99.90;;;;;;20677031;28;20077;-46
2024/02/09 09:28:30;;;;;;;474.60;17.42;;;5.20;99.90;;;;;;20671115;28;21145;-42
2024/02/09 09:38:32;;;;;;;878.72;27.77;;;5.20;99.90;;;;;;20669329;28;20061;-48
2024/02/09 09:48:37;;;;;;;609.58;18.92;;;5.20;99.90;;;;;;20667937;28;20649;-47
2024/02/09 09:58:41;;;;;;;535.88;17.95;;;5.10;99.90;;;;;;20669344;28;20553;-46
2024/02/09 10:08:42;;;;;;;233.82;9.15;;;5.10;99.90;;;;;;20667462;28;20060;-44
2024/02/09 10:18:48;;;;;;;178.32;8.57;;;5.10;99.90;;;;;;20667718;28;20532;-46
2024/02/09 10:28:52;;;;;;;661.60;21.48;;;5.10;99.90;;;;;;20669395;28;20161;-47
2024/02/09 10:38:58;;;;;;;952.42;34.50;;;5.10;99.90;;;;;;20668915;28;20697;-44
2024/02/09 10:49:05;;;;;;;129.50;8.98;;;5.10;99.90;;;;;;20668047;28;20075;-45
2024/02/09 10:59:09;;;;;;;7.28;3.60;;;5.20;99.90;;;;;;20665725;28;20518;-43
2024/02/09 11:09:14;;;;;;;585.38;24.25;;;5.30;99.90;;;;;;20668322;28;20037;-45
2024/02/09 11:19:17;;;;;;;176.82;8.75;;;5.30;99.90;;;;;;20664986;28;20252;-49
2024/02/09 11:29:22;;;;;;;6.75;3.30;;;5.30;99.90;;;;;;20665349;28;20049;-44
2024/02/09 11:39:25;;;;;;;40.53;4.70;;;5.30;99.90;;;;;;20663777;28;20173;-48
2024/02/09 11:49:28;;;;;;;5.70;2.28;;;5.20;99.90;;;;;;20665128;28;20065;-46
2024/02/09 11:59:31;;;;;;;10.98;4.72;;;5.30;99.90;;;;;;20664826;28;20040;-45
2024/02/09 12:09:34;;;;;;;360.88;16.88;;;5.30;99.90;;;;;;20669172;28;20079;-45
2024/02/09 12:19:37;;;;;;;626.90;21.95;;;5.30;99.90;;;;;;20678462;28;20045;-44
2024/02/09 12:29:39;;;;;;;966.97;39.05;;;5.30;99.90;;;;;;20676009;28;20041;-45
2024/02/09 12:39:53;;;;;;;650.53;31.67;;;5.40;99.90;;;;;;20674495;28;20699;-44
2024/02/09 12:49:56;;;;;;;832.75;32.33;;;5.40;99.90;;;;;;20675688;28;20073;-45
2024/02/09 12:59:58;;;;;;;519.42;23.48;;;5.40;99.90;;;;;;20678482;28;20096;-48
2024/02/09 13:10:00;;;;;;;9.23;3.50;;;5.40;99.90;;;;;;20676292;28;21081;-46
2024/02/09 13:20:06;;;;;;;404.50;19.92;;;5.30;99.90;;;;;;20671459;28;20084;-45
2024/02/09 13:30:10;;;;;;;364.30;14.13;;;5.30;99.90;;;;;;20672216;28;20064;-45
2024/02/09 13:40:16;;;;;;;105.90;5.22;;;5.30;99.90;;;;;;20673722;28;20130;-44
2024/02/09 13:50:23;;;;;;;132.07;8.00;;;5.30;99.90;;;;;;20667447;28;20072;-48
2024/02/09 14:00:26;;;;;;;471.17;30.27;;;5.40;99.90;;;;;;20670142;28;21529;-45
2024/02/09 14:10:27;;;;;;;1195.13;59.17;;;5.40;99.90;;;;;;20651004;28;20141;-44
2024/02/09 14:20:32;;;;;;;216.80;15.43;;;5.40;99.90;;;;;;20671960;28;20692;-45
2024/02/09 14:30:34;;;;;;;153.63;18.80;;;5.30;99.90;;;;;;20493992;28;20086;-45
2024/02/09 14:40:36;;;;;;;95.78;8.35;;;5.30;99.90;;;;;;20493433;28;20873;-45
2024/02/09 14:50:39;;;;;;;14.55;6.32;;;5.30;99.90;;;;;;20476776;28;20222;-44
2024/02/09 15:00:43;;;;;;;464.13;22.75;;;5.20;99.90;;;;;;20630158;28;20146;-46
2024/02/09 15:10:45;;;;;;;320.30;15.07;;;5.10;99.90;;;;;;20665152;28;20033;-46
2024/02/09 15:20:48;;;;;;;706.75;25.65;;;5.10;99.90;;;;;;20664109;28;20603;-42
2024/02/09 15:30:50;;;;;;;409.33;15.82;;;5.20;99.90;;;;;;20664779;28;20064;-44
2024/02/09 15:40:52;;;;;;;310.17;13.77;;;5.20;99.90;;;;;;20665756;28;20068;-49
2024/02/09 15:50:54;;;;;;;4.50;1.40;;;5.20;99.90;;;;;;20677399;28;20068;-45
2024/02/09 16:00:58;;;;;;;5.22;1.40;;;5.00;99.90;;;;;;20678342;28;20122;-43
2024/02/09 16:11:00;;;;;;;5.10;1.90;;;4.80;99.90;;;;;;20679005;28;20073;-44
2024/02/09 16:21:02;;;;;;;6.03;2.30;;;4.60;99.90;;;;;;20676677;28;21185;-45
2024/02/09 16:31:08;;;;;;;6.95;3.15;;;4.50;99.90;;;;;;20674253;28;20069;-44
2024/02/09 16:41:10;;;;;;;36.20;4.60;;;4.50;99.90;;;;;;20662413;28;20177;-46
2024/02/09 16:51:14;;;;;;;40.38;3.72;;;4.40;99.90;;;;;;20680595;28;20165;-44
2024/02/09 17:01:16;;;;;;;65.50;5.07;;;4.60;99.90;;;;;;20677541;28;20464;-45
2024/02/09 17:11:18;;;;;;;5.85;2.33;;;4.60;99.90;;;;;;20677163;28;20037;-41
2024/02/09 17:21:20;;;;;;;6.07;2.20;;;4.50;99.90;;;;;;20657898;28;20519;-44
2024/02/09 17:31:22;;;;;;;5.93;2.20;;;4.20;99.90;;;;;;20677253;28;20041;-46
2024/02/09 17:41:29;;;;;;;4.05;1.90;;;4.00;99.90;;;;;;20675128;28;21160;-48
2024/02/09 17:51:32;;;;;;;6.18;1.42;;;3.80;99.90;;;;;;20674529;28;20230;-48
2024/02/09 18:01:37;;;;;;;2.60;1.05;;;3.80;99.90;;;;;;20670963;28;20068;-44
2024/02/09 18:11:39;;;;;;;2.72;1.25;;;3.80;99.90;;;;;;20673841;28;20064;-45
2024/02/09 18:21:41;;;;;;;3.78;0.75;;;3.80;99.90;;;;;;20673456;28;20167;-46
2024/02/09 18:31:46;;;;;;;1.85;0.50;;;3.70;99.90;;;;;;20670557;28;20072;-46
2024/02/09 18:41:49;;;;;;;1.70;0.70;;;3.70;99.90;;;;;;20673198;28;20064;-47
2024/02/09 18:51:51;;;;;;;2.53;1.23;;;3.60;99.90;;;;;;20670981;28;20073;-44
2024/02/09 19:01:54;;;;;;;3.30;1.10;;;3.70;99.90;;;;;;20670810;28;20072;-44
2024/02/09 19:11:56;;;;;;;4.70;1.90;;;3.70;99.90;;;;;;20654892;28;20147;-45
2024/02/09 19:21:58;;;;;;;2.28;0.90;;;3.90;99.90;;;;;;20680489;28;20812;-49
2024/02/09 19:32:00;;;;;;;2.95;1.17;;;3.90;99.90;;;;;;20688226;28;20925;-46
2024/02/09 19:42:01;;;;;;;2.13;1.50;;;3.90;99.90;;;;;;20679992;28;20118;-45
2024/02/09 19:52:04;;;;;;;4.00;1.88;;;4.00;99.90;;;;;;20684999;28;20125;-45
2024/02/09 20:02:08;;;;;;;8.73;2.40;;;4.00;99.90;;;;;;20684570;28;20087;-45
2024/02/09 20:12:10;;;;;;;4.40;2.25;;;4.00;99.90;;;;;;20684061;28;20102;-46
2024/02/09 20:22:15;;;;;;;4.78;2.33;;;4.20;99.90;;;;;;20683377;28;20170;-45
2024/02/09 20:32:19;;;;;;;3.58;1.75;;;4.30;99.90;;;;;;20663878;28;20064;-44
2024/02/09 20:42:21;;;;;;;3.58;2.20;;;4.40;99.90;;;;;;20680774;28;20077;-44
2024/02/09 20:52:23;;;;;;;16.20;4.22;;;4.30;99.90;;;;;;20682910;28;20041;-47
2024/02/09 21:02:30;;;;;;;1.80;1.10;;;4.30;99.90;;;;;;20679894;28;20520;-45
2024/02/09 21:12:33;;;;;;;2.28;0.50;;;4.30;99.90;;;;;;20677373;28;20091;-41
2024/02/09 21:22:36;;;;;;;3.30;0.63;;;4.20;99.90;;;;;;20676198;28;20056;-45
2024/02/09 21:32:38;;;;;;;1.67;0.63;;;4.10;99.90;;;;;;20678170;28;20124;-44
2024/02/09 21:42:43;;;;;;;0.57;0.10;;;4.00;99.90;;;;;;20676169;28;20122;-47
2024/02/09 21:52:45;;;;;;;0.82;0.08;;;3.90;99.90;;;;;;20675459;28;20081;-44
2024/02/09 22:02:46;;;;;;;1.67;0.20;;;3.90;99.90;;;;;;20674190;28;20126;-45
2024/02/09 22:12:53;;;;;;;3.03;0.90;;;3.90;99.90;;;;;;20674047;28;20064;-44
2024/02/09 22:22:55;;;;;;;0.98;0.20;;;3.80;99.90;;;;;;20656591;28;20209;-46
2024/02/09 22:32:58;;;;;;;2.58;0.63;;;3.90;99.90;;;;;;20672038;28;20129;-46
2024/02/09 22:43:06;;;;;;;3.53;1.48;;;3.80;99.90;;;;;;20671876;28;20069;-44
2024/02/09 22:53:08;;;;;;;2.40;1.10;;;3.90;99.90;;;;;;20671763;28;20064;-47
2024/02/09 23:03:10;;;;;;;0.10;0.00;;;3.90;99.90;;;;;;20670123;28;20511;-46
2024/02/09 23:13:13;;;;;;;0.00;0.00;;;3.80;99.90;;;;;;20670404;28;20204;-44
2024/02/09 23:23:15;;;;;;;0.30;0.00;;;3.60;99.90;;;;;;20672371;28;20519;-45
2024/02/09 23:33:18;;;;;;;0.15;0.00;;;3.60;99.90;;;;;;20667229;28;20068;-44
2024/02/09 23:43:23;;;;;;;0.40;0.03;;;3.70;99.90;;;;;;20669888;28;20072;-44
2024/02/09 23:53:26;;;;;;;0.08;0.00;;;3.60;99.90;;;;;;20668641;28;20084;-48
